sensor_id;sensor_type;location;lat;lon;timestamp;P1;durP1;ratioP1;P2;durP2;ratioP2
48875;SDS011;34689;51.644;5.618;2022-07-23T00:01:37;0.82;;;0.50;;
48875;SDS011;34689;51.644;5.618;2022-07-23T00:04:06;1.83;;;0.77;;
48875;SDS011;34689;51.644;5.618;2022-07-23T00:06:31;1.75;;;0.60;;
48875;SDS011;34689;51.644;5.618;2022-07-23T00:08:57;1.27;;;1.00;;
48875;SDS011;34689;51.644;5.618;2022-07-23T00:11:23;2.33;;;1.05;;
48875;SDS011;34689;51.644;5.618;2022-07-23T00:13:51;1.30;;;0.75;;
48875;SDS011;34689;51.644;5.618;2022-07-23T00:16:16;1.15;;;0.75;;
48875;SDS011;34689;51.644;5.618;2022-07-23T00:18:42;1.33;;;0.93;;
48875;SDS011;34689;51.644;5.618;2022-07-23T00:21:07;1.77;;;0.77;;
48875;SDS011;34689;51.644;5.618;2022-07-23T00:23:33;1.60;;;1.00;;
48875;SDS011;34689;51.644;5.618;2022-07-23T00:25:59;1.30;;;0.88;;
48875;SDS011;34689;51.644;5.618;2022-07-23T00:28:25;1.33;;;0.95;;
48875;SDS011;34689;51.644;5.618;2022-07-23T00:30:50;2.03;;;0.93;;
48875;SDS011;34689;51.644;5.618;2022-07-23T00:33:16;1.92;;;0.98;;
48875;SDS011;34689;51.644;5.618;2022-07-23T00:35:41;2.08;;;1.00;;
48875;SDS011;34689;51.644;5.618;2022-07-23T00:38:08;1.40;;;1.15;;
48875;SDS011;34689;51.644;5.618;2022-07-23T00:40:34;3.30;;;1.15;;
48875;SDS011;34689;51.644;5.618;2022-07-23T00:43:01;1.27;;;0.85;;
48875;SDS011;34689;51.644;5.618;2022-07-23T00:45:29;1.70;;;1.17;;
48875;SDS011;34689;51.644;5.618;2022-07-23T00:47:55;2.63;;;0.85;;
48875;SDS011;34689;51.644;5.618;2022-07-23T00:50:21;3.47;;;1.25;;
48875;SDS011;34689;51.644;5.618;2022-07-23T00:52:47;2.13;;;1.30;;
48875;SDS011;34689;51.644;5.618;2022-07-23T00:55:13;1.63;;;1.00;;
48875;SDS011;34689;51.644;5.618;2022-07-23T00:57:40;2.22;;;0.98;;
48875;SDS011;34689;51.644;5.618;2022-07-23T01:00:07;1.98;;;0.95;;
48875;SDS011;34689;51.644;5.618;2022-07-23T01:02:36;2.47;;;1.00;;
48875;SDS011;34689;51.644;5.618;2022-07-23T01:05:02;1.85;;;1.20;;
48875;SDS011;34689;51.644;5.618;2022-07-23T01:07:28;1.40;;;0.98;;
48875;SDS011;34689;51.644;5.618;2022-07-23T01:09:54;1.30;;;0.98;;
48875;SDS011;34689;51.644;5.618;2022-07-23T01:12:20;2.55;;;0.93;;
48875;SDS011;34689;51.644;5.618;2022-07-23T01:14:56;1.10;;;0.93;;
48875;SDS011;34689;51.644;5.618;2022-07-23T01:17:24;1.25;;;0.98;;
48875;SDS011;34689;51.644;5.618;2022-07-23T01:19:50;4.65;;;0.80;;
48875;SDS011;34689;51.644;5.618;2022-07-23T01:22:17;1.52;;;0.80;;
48875;SDS011;34689;51.644;5.618;2022-07-23T01:24:45;1.00;;;0.73;;
48875;SDS011;34689;51.644;5.618;2022-07-23T01:27:11;1.83;;;1.10;;
48875;SDS011;34689;51.644;5.618;2022-07-23T01:29:42;1.73;;;0.95;;
48875;SDS011;34689;51.644;5.618;2022-07-23T01:32:08;2.90;;;0.93;;
48875;SDS011;34689;51.644;5.618;2022-07-23T01:34:33;1.15;;;0.90;;
48875;SDS011;34689;51.644;5.618;2022-07-23T01:36:59;1.30;;;0.93;;
48875;SDS011;34689;51.644;5.618;2022-07-23T01:39:25;1.48;;;1.08;;
48875;SDS011;34689;51.644;5.618;2022-07-23T01:41:50;1.95;;;1.17;;
48875;SDS011;34689;51.644;5.618;2022-07-23T01:44:16;1.52;;;1.00;;
48875;SDS011;34689;51.644;5.618;2022-07-23T01:46:41;2.33;;;0.70;;
48875;SDS011;34689;51.644;5.618;2022-07-23T01:49:07;0.85;;;0.77;;
48875;SDS011;34689;51.644;5.618;2022-07-23T01:51:33;1.67;;;1.30;;
48875;SDS011;34689;51.644;5.618;2022-07-23T01:53:59;4.97;;;1.42;;
48875;SDS011;34689;51.644;5.618;2022-07-23T01:56:27;1.60;;;1.20;;
48875;SDS011;34689;51.644;5.618;2022-07-23T01:58:52;1.50;;;0.85;;
48875;SDS011;34689;51.644;5.618;2022-07-23T02:01:18;2.53;;;1.00;;
48875;SDS011;34689;51.644;5.618;2022-07-23T02:03:44;1.25;;;1.15;;
48875;SDS011;34689;51.644;5.618;2022-07-23T02:06:09;1.40;;;0.90;;
48875;SDS011;34689;51.644;5.618;2022-07-23T02:08:35;1.52;;;1.25;;
48875;SDS011;34689;51.644;5.618;2022-07-23T02:11:01;1.67;;;0.80;;
48875;SDS011;34689;51.644;5.618;2022-07-23T02:13:26;3.83;;;1.63;;
48875;SDS011;34689;51.644;5.618;2022-07-23T02:15:54;1.75;;;0.85;;
48875;SDS011;34689;51.644;5.618;2022-07-23T02:18:19;1.75;;;1.40;;
48875;SDS011;34689;51.644;5.618;2022-07-23T02:20:45;1.63;;;0.90;;
48875;SDS011;34689;51.644;5.618;2022-07-23T02:23:11;3.35;;;0.82;;
48875;SDS011;34689;51.644;5.618;2022-07-23T02:25:36;1.00;;;0.90;;
48875;SDS011;34689;51.644;5.618;2022-07-23T02:28:02;1.38;;;0.90;;
48875;SDS011;34689;51.644;5.618;2022-07-23T02:30:28;2.15;;;1.42;;
48875;SDS011;34689;51.644;5.618;2022-07-23T02:32:54;3.13;;;1.10;;
48875;SDS011;34689;51.644;5.618;2022-07-23T02:35:20;2.47;;;1.27;;
48875;SDS011;34689;51.644;5.618;2022-07-23T02:37:46;2.78;;;1.10;;
48875;SDS011;34689;51.644;5.618;2022-07-23T02:40:11;1.25;;;1.08;;
48875;SDS011;34689;51.644;5.618;2022-07-23T02:42:37;1.40;;;0.98;;
48875;SDS011;34689;51.644;5.618;2022-07-23T02:45:03;1.58;;;0.98;;
48875;SDS011;34689;51.644;5.618;2022-07-23T02:47:29;2.67;;;1.65;;
48875;SDS011;34689;51.644;5.618;2022-07-23T02:49:56;3.63;;;1.30;;
48875;SDS011;34689;51.644;5.618;2022-07-23T02:52:22;1.40;;;1.30;;
48875;SDS011;34689;51.644;5.618;2022-07-23T02:54:48;1.35;;;0.85;;
48875;SDS011;34689;51.644;5.618;2022-07-23T02:57:13;1.48;;;1.05;;
48875;SDS011;34689;51.644;5.618;2022-07-23T02:59:39;1.65;;;1.25;;
48875;SDS011;34689;51.644;5.618;2022-07-23T03:02:05;1.40;;;0.93;;
48875;SDS011;34689;51.644;5.618;2022-07-23T03:04:30;1.83;;;1.30;;
48875;SDS011;34689;51.644;5.618;2022-07-23T03:06:56;4.20;;;2.08;;
48875;SDS011;34689;51.644;5.618;2022-07-23T03:09:21;1.83;;;1.00;;
48875;SDS011;34689;51.644;5.618;2022-07-23T03:11:47;4.50;;;1.55;;
48875;SDS011;34689;51.644;5.618;2022-07-23T03:14:13;1.75;;;1.00;;
48875;SDS011;34689;51.644;5.618;2022-07-23T03:16:38;3.58;;;1.30;;
48875;SDS011;34689;51.644;5.618;2022-07-23T03:19:04;3.15;;;1.35;;
48875;SDS011;34689;51.644;5.618;2022-07-23T03:21:30;3.28;;;1.27;;
48875;SDS011;34689;51.644;5.618;2022-07-23T03:23:56;2.28;;;1.65;;
48875;SDS011;34689;51.644;5.618;2022-07-23T03:26:21;2.08;;;1.35;;
48875;SDS011;34689;51.644;5.618;2022-07-23T03:28:50;1.92;;;1.50;;
48875;SDS011;34689;51.644;5.618;2022-07-23T03:31:15;2.10;;;1.10;;
48875;SDS011;34689;51.644;5.618;2022-07-23T03:33:41;1.60;;;1.27;;
48875;SDS011;34689;51.644;5.618;2022-07-23T03:36:07;1.73;;;1.00;;
48875;SDS011;34689;51.644;5.618;2022-07-23T03:38:33;3.63;;;1.50;;
48875;SDS011;34689;51.644;5.618;2022-07-23T03:40:59;1.70;;;1.30;;
48875;SDS011;34689;51.644;5.618;2022-07-23T03:43:24;2.45;;;1.83;;
48875;SDS011;34689;51.644;5.618;2022-07-23T03:45:50;2.33;;;1.65;;
48875;SDS011;34689;51.644;5.618;2022-07-23T03:48:16;1.67;;;1.40;;
48875;SDS011;34689;51.644;5.618;2022-07-23T03:50:42;2.55;;;1.40;;
48875;SDS011;34689;51.644;5.618;2022-07-23T03:53:08;1.65;;;1.50;;
48875;SDS011;34689;51.644;5.618;2022-07-23T03:55:34;2.35;;;1.63;;
48875;SDS011;34689;51.644;5.618;2022-07-23T03:58:01;2.88;;;1.35;;
48875;SDS011;34689;51.644;5.618;2022-07-23T04:00:27;3.30;;;1.77;;
48875;SDS011;34689;51.644;5.618;2022-07-23T04:02:53;2.38;;;1.42;;
48875;SDS011;34689;51.644;5.618;2022-07-23T04:05:18;2.28;;;1.63;;
48875;SDS011;34689;51.644;5.618;2022-07-23T04:07:44;1.98;;;1.40;;
48875;SDS011;34689;51.644;5.618;2022-07-23T04:10:10;2.42;;;1.30;;
48875;SDS011;34689;51.644;5.618;2022-07-23T04:12:35;1.98;;;1.23;;
48875;SDS011;34689;51.644;5.618;2022-07-23T04:15:01;3.80;;;1.27;;
48875;SDS011;34689;51.644;5.618;2022-07-23T04:17:27;1.95;;;1.42;;
48875;SDS011;34689;51.644;5.618;2022-07-23T04:19:53;3.88;;;0.93;;
48875;SDS011;34689;51.644;5.618;2022-07-23T04:22:19;1.90;;;1.52;;
48875;SDS011;34689;51.644;5.618;2022-07-23T04:24:44;3.60;;;1.48;;
48875;SDS011;34689;51.644;5.618;2022-07-23T04:27:10;2.33;;;1.40;;
48875;SDS011;34689;51.644;5.618;2022-07-23T04:29:36;2.42;;;1.52;;
48875;SDS011;34689;51.644;5.618;2022-07-23T04:32:02;1.80;;;1.60;;
48875;SDS011;34689;51.644;5.618;2022-07-23T04:34:27;1.92;;;1.73;;
48875;SDS011;34689;51.644;5.618;2022-07-23T04:36:53;1.77;;;1.23;;
48875;SDS011;34689;51.644;5.618;2022-07-23T04:39:19;1.92;;;1.30;;
48875;SDS011;34689;51.644;5.618;2022-07-23T04:41:45;2.95;;;1.67;;
48875;SDS011;34689;51.644;5.618;2022-07-23T04:44:11;1.88;;;1.45;;
48875;SDS011;34689;51.644;5.618;2022-07-23T04:46:36;3.30;;;1.30;;
48875;SDS011;34689;51.644;5.618;2022-07-23T04:49:03;2.33;;;1.77;;
48875;SDS011;34689;51.644;5.618;2022-07-23T04:51:28;2.42;;;1.25;;
48875;SDS011;34689;51.644;5.618;2022-07-23T04:53:54;1.33;;;1.10;;
48875;SDS011;34689;51.644;5.618;2022-07-23T04:56:20;2.95;;;1.38;;
48875;SDS011;34689;51.644;5.618;2022-07-23T04:58:46;1.85;;;1.13;;
48875;SDS011;34689;51.644;5.618;2022-07-23T05:01:11;2.25;;;1.38;;
48875;SDS011;34689;51.644;5.618;2022-07-23T05:03:37;2.42;;;1.13;;
48875;SDS011;34689;51.644;5.618;2022-07-23T05:06:03;2.33;;;1.70;;
48875;SDS011;34689;51.644;5.618;2022-07-23T05:08:28;2.45;;;1.58;;
48875;SDS011;34689;51.644;5.618;2022-07-23T05:10:54;2.58;;;1.25;;
48875;SDS011;34689;51.644;5.618;2022-07-23T05:13:20;1.92;;;1.48;;
48875;SDS011;34689;51.644;5.618;2022-07-23T05:15:46;1.98;;;1.70;;
48875;SDS011;34689;51.644;5.618;2022-07-23T05:18:12;2.70;;;1.83;;
48875;SDS011;34689;51.644;5.618;2022-07-23T05:20:38;2.72;;;1.52;;
48875;SDS011;34689;51.644;5.618;2022-07-23T05:23:04;1.63;;;1.33;;
48875;SDS011;34689;51.644;5.618;2022-07-23T05:25:30;3.08;;;1.70;;
48875;SDS011;34689;51.644;5.618;2022-07-23T05:27:55;3.15;;;1.77;;
48875;SDS011;34689;51.644;5.618;2022-07-23T05:30:22;1.83;;;1.35;;
48875;SDS011;34689;51.644;5.618;2022-07-23T05:32:47;1.65;;;1.27;;
48875;SDS011;34689;51.644;5.618;2022-07-23T05:35:14;3.10;;;1.58;;
48875;SDS011;34689;51.644;5.618;2022-07-23T05:37:40;1.70;;;1.40;;
48875;SDS011;34689;51.644;5.618;2022-07-23T05:40:06;1.45;;;1.33;;
48875;SDS011;34689;51.644;5.618;2022-07-23T05:42:34;1.75;;;1.20;;
48875;SDS011;34689;51.644;5.618;2022-07-23T05:45:00;1.70;;;1.20;;
48875;SDS011;34689;51.644;5.618;2022-07-23T05:47:26;4.63;;;2.22;;
48875;SDS011;34689;51.644;5.618;2022-07-23T05:49:52;2.03;;;1.65;;
48875;SDS011;34689;51.644;5.618;2022-07-23T05:52:18;2.92;;;1.80;;
48875;SDS011;34689;51.644;5.618;2022-07-23T05:54:43;2.85;;;1.90;;
48875;SDS011;34689;51.644;5.618;2022-07-23T05:57:09;2.35;;;1.58;;
48875;SDS011;34689;51.644;5.618;2022-07-23T05:59:37;2.53;;;1.42;;
48875;SDS011;34689;51.644;5.618;2022-07-23T06:02:03;2.10;;;1.30;;
48875;SDS011;34689;51.644;5.618;2022-07-23T06:04:28;2.22;;;1.60;;
48875;SDS011;34689;51.644;5.618;2022-07-23T06:06:54;3.97;;;1.83;;
48875;SDS011;34689;51.644;5.618;2022-07-23T06:09:20;4.82;;;2.05;;
48875;SDS011;34689;51.644;5.618;2022-07-23T06:11:45;2.58;;;1.92;;
48875;SDS011;34689;51.644;5.618;2022-07-23T06:14:11;2.13;;;1.60;;
48875;SDS011;34689;51.644;5.618;2022-07-23T06:16:37;4.57;;;2.17;;
48875;SDS011;34689;51.644;5.618;2022-07-23T06:19:02;3.20;;;1.55;;
48875;SDS011;34689;51.644;5.618;2022-07-23T06:21:28;1.70;;;1.35;;
48875;SDS011;34689;51.644;5.618;2022-07-23T06:23:53;2.08;;;1.20;;
48875;SDS011;34689;51.644;5.618;2022-07-23T06:26:19;3.95;;;1.10;;
48875;SDS011;34689;51.644;5.618;2022-07-23T06:28:45;2.25;;;1.67;;
48875;SDS011;34689;51.644;5.618;2022-07-23T06:31:10;2.03;;;1.25;;
48875;SDS011;34689;51.644;5.618;2022-07-23T06:33:36;2.30;;;1.70;;
48875;SDS011;34689;51.644;5.618;2022-07-23T06:36:02;1.85;;;1.10;;
48875;SDS011;34689;51.644;5.618;2022-07-23T06:38:28;1.05;;;0.95;;
48875;SDS011;34689;51.644;5.618;2022-07-23T06:40:53;1.45;;;1.15;;
48875;SDS011;34689;51.644;5.618;2022-07-23T06:43:19;1.75;;;1.38;;
48875;SDS011;34689;51.644;5.618;2022-07-23T06:45:45;1.42;;;1.08;;
48875;SDS011;34689;51.644;5.618;2022-07-23T06:48:11;1.17;;;1.08;;
48875;SDS011;34689;51.644;5.618;2022-07-23T06:50:36;2.22;;;1.00;;
48875;SDS011;34689;51.644;5.618;2022-07-23T06:53:02;1.85;;;1.20;;
48875;SDS011;34689;51.644;5.618;2022-07-23T06:55:28;1.55;;;1.20;;
48875;SDS011;34689;51.644;5.618;2022-07-23T06:57:53;1.90;;;0.90;;
48875;SDS011;34689;51.644;5.618;2022-07-23T07:00:19;2.10;;;0.90;;
48875;SDS011;34689;51.644;5.618;2022-07-23T07:02:45;1.35;;;1.05;;
48875;SDS011;34689;51.644;5.618;2022-07-23T07:05:10;2.80;;;0.90;;
48875;SDS011;34689;51.644;5.618;2022-07-23T07:07:36;1.52;;;0.93;;
48875;SDS011;34689;51.644;5.618;2022-07-23T07:10:04;1.30;;;0.90;;
48875;SDS011;34689;51.644;5.618;2022-07-23T07:12:30;3.08;;;1.00;;
48875;SDS011;34689;51.644;5.618;2022-07-23T07:14:56;2.65;;;1.35;;
48875;SDS011;34689;51.644;5.618;2022-07-23T07:17:22;1.27;;;1.05;;
48875;SDS011;34689;51.644;5.618;2022-07-23T07:19:48;1.08;;;0.73;;
48875;SDS011;34689;51.644;5.618;2022-07-23T07:22:14;0.80;;;0.70;;
48875;SDS011;34689;51.644;5.618;2022-07-23T07:24:42;0.93;;;0.55;;
48875;SDS011;34689;51.644;5.618;2022-07-23T07:27:07;1.67;;;0.80;;
48875;SDS011;34689;51.644;5.618;2022-07-23T07:29:33;0.90;;;0.68;;
48875;SDS011;34689;51.644;5.618;2022-07-23T07:31:58;1.05;;;0.82;;
48875;SDS011;34689;51.644;5.618;2022-07-23T07:34:24;1.40;;;0.82;;
48875;SDS011;34689;51.644;5.618;2022-07-23T07:36:50;0.40;;;0.40;;
48875;SDS011;34689;51.644;5.618;2022-07-23T07:39:15;1.48;;;0.68;;
48875;SDS011;34689;51.644;5.618;2022-07-23T07:41:41;0.82;;;0.45;;
48875;SDS011;34689;51.644;5.618;2022-07-23T07:44:07;1.15;;;0.57;;
48875;SDS011;34689;51.644;5.618;2022-07-23T07:46:33;0.93;;;0.80;;
48875;SDS011;34689;51.644;5.618;2022-07-23T07:48:58;1.15;;;0.65;;
48875;SDS011;34689;51.644;5.618;2022-07-23T07:51:24;0.73;;;0.60;;
48875;SDS011;34689;51.644;5.618;2022-07-23T07:53:53;0.93;;;0.45;;
48875;SDS011;34689;51.644;5.618;2022-07-23T07:56:19;1.45;;;0.65;;
48875;SDS011;34689;51.644;5.618;2022-07-23T07:58:45;1.65;;;0.63;;
48875;SDS011;34689;51.644;5.618;2022-07-23T08:01:10;1.77;;;0.95;;
48875;SDS011;34689;51.644;5.618;2022-07-23T08:03:36;0.77;;;0.60;;
48875;SDS011;34689;51.644;5.618;2022-07-23T08:06:02;0.73;;;0.30;;
48875;SDS011;34689;51.644;5.618;2022-07-23T08:08:27;1.05;;;0.63;;
48875;SDS011;34689;51.644;5.618;2022-07-23T08:10:53;0.60;;;0.55;;
48875;SDS011;34689;51.644;5.618;2022-07-23T08:13:19;0.75;;;0.60;;
48875;SDS011;34689;51.644;5.618;2022-07-23T08:15:44;1.08;;;0.57;;
48875;SDS011;34689;51.644;5.618;2022-07-23T08:18:10;1.08;;;0.60;;
48875;SDS011;34689;51.644;5.618;2022-07-23T08:20:36;1.25;;;0.50;;
48875;SDS011;34689;51.644;5.618;2022-07-23T08:23:05;1.13;;;0.55;;
48875;SDS011;34689;51.644;5.618;2022-07-23T08:25:36;0.80;;;0.40;;
48875;SDS011;34689;51.644;5.618;2022-07-23T08:28:04;1.23;;;0.70;;
48875;SDS011;34689;51.644;5.618;2022-07-23T08:30:30;0.73;;;0.60;;
48875;SDS011;34689;51.644;5.618;2022-07-23T08:33:09;1.00;;;0.70;;
48875;SDS011;34689;51.644;5.618;2022-07-23T08:35:38;2.50;;;0.70;;
48875;SDS011;34689;51.644;5.618;2022-07-23T08:38:15;1.27;;;0.85;;
48875;SDS011;34689;51.644;5.618;2022-07-23T08:40:44;1.48;;;0.70;;
48875;SDS011;34689;51.644;5.618;2022-07-23T08:43:12;1.90;;;0.60;;
48875;SDS011;34689;51.644;5.618;2022-07-23T08:45:41;0.73;;;0.70;;
48875;SDS011;34689;51.644;5.618;2022-07-23T08:48:21;0.52;;;0.47;;
48875;SDS011;34689;51.644;5.618;2022-07-23T08:50:49;1.17;;;0.65;;
48875;SDS011;34689;51.644;5.618;2022-07-23T08:53:24;1.58;;;0.85;;
48875;SDS011;34689;51.644;5.618;2022-07-23T08:55:52;2.28;;;0.70;;
48875;SDS011;34689;51.644;5.618;2022-07-23T08:58:19;1.33;;;0.85;;
48875;SDS011;34689;51.644;5.618;2022-07-23T09:00:46;1.67;;;0.70;;
48875;SDS011;34689;51.644;5.618;2022-07-23T09:03:23;2.92;;;1.25;;
48875;SDS011;34689;51.644;5.618;2022-07-23T09:05:51;1.05;;;0.80;;
48875;SDS011;34689;51.644;5.618;2022-07-23T09:08:18;2.78;;;1.25;;
48875;SDS011;34689;51.644;5.618;2022-07-23T09:13:24;1.80;;;1.00;;
48875;SDS011;34689;51.644;5.618;2022-07-23T09:16:14;1.55;;;0.77;;
48875;SDS011;34689;51.644;5.618;2022-07-23T09:21:15;0.98;;;0.63;;
48875;SDS011;34689;51.644;5.618;2022-07-23T09:31:50;2.22;;;0.93;;
48875;SDS011;34689;51.644;5.618;2022-07-23T09:34:22;0.77;;;0.50;;
48875;SDS011;34689;51.644;5.618;2022-07-23T09:36:50;0.63;;;0.60;;
48875;SDS011;34689;51.644;5.618;2022-07-23T09:39:30;1.92;;;1.08;;
48875;SDS011;34689;51.644;5.618;2022-07-23T09:41:59;1.65;;;0.70;;
48875;SDS011;34689;51.644;5.618;2022-07-23T09:44:41;3.22;;;0.88;;
48875;SDS011;34689;51.644;5.618;2022-07-23T09:47:08;2.30;;;0.90;;
48875;SDS011;34689;51.644;5.618;2022-07-23T09:49:34;1.85;;;0.82;;
48875;SDS011;34689;51.644;5.618;2022-07-23T09:52:00;1.02;;;0.80;;
48875;SDS011;34689;51.644;5.618;2022-07-23T09:54:29;1.73;;;0.98;;
48875;SDS011;34689;51.644;5.618;2022-07-23T09:57:00;2.85;;;0.90;;
48875;SDS011;34689;51.644;5.618;2022-07-23T09:59:29;1.63;;;0.93;;
48875;SDS011;34689;51.644;5.618;2022-07-23T10:01:58;1.60;;;0.90;;
48875;SDS011;34689;51.644;5.618;2022-07-23T10:04:25;1.95;;;0.90;;
48875;SDS011;34689;51.644;5.618;2022-07-23T10:06:54;1.73;;;0.90;;
48875;SDS011;34689;51.644;5.618;2022-07-23T10:09:27;2.63;;;0.85;;
48875;SDS011;34689;51.644;5.618;2022-07-23T10:11:56;0.85;;;0.73;;
48875;SDS011;34689;51.644;5.618;2022-07-23T10:14:30;0.93;;;0.80;;
48875;SDS011;34689;51.644;5.618;2022-07-23T10:16:58;0.90;;;0.65;;
48875;SDS011;34689;51.644;5.618;2022-07-23T10:19:24;1.10;;;0.70;;
48875;SDS011;34689;51.644;5.618;2022-07-23T10:21:52;1.48;;;0.88;;
48875;SDS011;34689;51.644;5.618;2022-07-23T10:29:55;1.17;;;0.57;;
48875;SDS011;34689;51.644;5.618;2022-07-23T10:37:51;0.77;;;0.65;;
48875;SDS011;34689;51.644;5.618;2022-07-23T10:40:57;1.70;;;1.33;;
48875;SDS011;34689;51.644;5.618;2022-07-23T10:43:28;1.25;;;0.85;;
48875;SDS011;34689;51.644;5.618;2022-07-23T10:45:55;1.40;;;1.05;;
48875;SDS011;34689;51.644;5.618;2022-07-23T10:48:41;1.35;;;0.80;;
48875;SDS011;34689;51.644;5.618;2022-07-23T10:51:14;1.70;;;0.88;;
48875;SDS011;34689;51.644;5.618;2022-07-23T10:56:16;1.33;;;0.77;;
48875;SDS011;34689;51.644;5.618;2022-07-23T10:59:05;1.98;;;1.15;;
48875;SDS011;34689;51.644;5.618;2022-07-23T11:01:37;1.60;;;0.70;;
48875;SDS011;34689;51.644;5.618;2022-07-23T11:04:04;0.60;;;0.60;;
48875;SDS011;34689;51.644;5.618;2022-07-23T11:07:33;2.13;;;0.98;;
48875;SDS011;34689;51.644;5.618;2022-07-23T11:09:38;2.95;;;1.10;;
48875;SDS011;34689;51.644;5.618;2022-07-23T11:14:57;1.05;;;0.95;;
48875;SDS011;34689;51.644;5.618;2022-07-23T11:17:24;1.95;;;1.15;;
48875;SDS011;34689;51.644;5.618;2022-07-23T11:25:09;1.55;;;1.20;;
48875;SDS011;34689;51.644;5.618;2022-07-23T11:27:39;1.48;;;1.08;;
48875;SDS011;34689;51.644;5.618;2022-07-23T11:30:13;2.13;;;1.35;;
48875;SDS011;34689;51.644;5.618;2022-07-23T11:32:54;1.10;;;1.00;;
48875;SDS011;34689;51.644;5.618;2022-07-23T11:35:44;2.78;;;1.20;;
48875;SDS011;34689;51.644;5.618;2022-07-23T11:40:45;2.80;;;1.17;;
48875;SDS011;34689;51.644;5.618;2022-07-23T11:43:14;1.50;;;1.00;;
48875;SDS011;34689;51.644;5.618;2022-07-23T11:45:41;1.90;;;1.27;;
48875;SDS011;34689;51.644;5.618;2022-07-23T11:48:14;1.98;;;1.40;;
48875;SDS011;34689;51.644;5.618;2022-07-23T11:50:51;2.90;;;1.75;;
48875;SDS011;34689;51.644;5.618;2022-07-23T11:53:24;2.90;;;1.77;;
48875;SDS011;34689;51.644;5.618;2022-07-23T11:55:51;2.40;;;1.45;;
48875;SDS011;34689;51.644;5.618;2022-07-23T11:58:18;2.17;;;1.42;;
48875;SDS011;34689;51.644;5.618;2022-07-23T12:00:44;1.80;;;1.10;;
48875;SDS011;34689;51.644;5.618;2022-07-23T12:03:09;1.40;;;1.15;;
48875;SDS011;34689;51.644;5.618;2022-07-23T12:05:36;3.83;;;1.00;;
48875;SDS011;34689;51.644;5.618;2022-07-23T12:08:03;1.30;;;0.90;;
48875;SDS011;34689;51.644;5.618;2022-07-23T12:10:38;4.50;;;1.27;;
48875;SDS011;34689;51.644;5.618;2022-07-23T12:13:11;1.33;;;1.17;;
48875;SDS011;34689;51.644;5.618;2022-07-23T12:15:41;1.77;;;1.38;;
48875;SDS011;34689;51.644;5.618;2022-07-23T12:18:09;1.52;;;1.20;;
48875;SDS011;34689;51.644;5.618;2022-07-23T12:20:37;1.35;;;0.85;;
48875;SDS011;34689;51.644;5.618;2022-07-23T12:23:16;0.82;;;0.70;;
48875;SDS011;34689;51.644;5.618;2022-07-23T12:25:44;5.47;;;0.82;;
48875;SDS011;34689;51.644;5.618;2022-07-23T12:30:38;3.75;;;1.30;;
48875;SDS011;34689;51.644;5.618;2022-07-23T12:33:04;1.85;;;1.10;;
48875;SDS011;34689;51.644;5.618;2022-07-23T12:35:31;1.73;;;1.20;;
48875;SDS011;34689;51.644;5.618;2022-07-23T12:38:06;2.17;;;1.33;;
48875;SDS011;34689;51.644;5.618;2022-07-23T12:40:47;2.40;;;1.10;;
48875;SDS011;34689;51.644;5.618;2022-07-23T12:43:28;2.22;;;1.30;;
48875;SDS011;34689;51.644;5.618;2022-07-23T12:46:14;1.65;;;1.00;;
48875;SDS011;34689;51.644;5.618;2022-07-23T12:51:24;1.85;;;1.48;;
48875;SDS011;34689;51.644;5.618;2022-07-23T12:53:53;2.13;;;1.05;;
48875;SDS011;34689;51.644;5.618;2022-07-23T12:56:30;1.45;;;1.00;;
48875;SDS011;34689;51.644;5.618;2022-07-23T13:01:35;1.63;;;1.10;;
48875;SDS011;34689;51.644;5.618;2022-07-23T13:06:40;2.78;;;1.63;;
48875;SDS011;34689;51.644;5.618;2022-07-23T13:09:07;2.15;;;1.38;;
48875;SDS011;34689;51.644;5.618;2022-07-23T13:11:35;2.00;;;1.30;;
48875;SDS011;34689;51.644;5.618;2022-07-23T13:14:01;2.20;;;1.23;;
48875;SDS011;34689;51.644;5.618;2022-07-23T13:16:28;2.10;;;1.20;;
48875;SDS011;34689;51.644;5.618;2022-07-23T13:18:54;1.92;;;1.10;;
48875;SDS011;34689;51.644;5.618;2022-07-23T13:21:21;4.65;;;2.85;;
48875;SDS011;34689;51.644;5.618;2022-07-23T13:23:47;2.33;;;1.40;;
48875;SDS011;34689;51.644;5.618;2022-07-23T13:26:13;1.30;;;1.17;;
48875;SDS011;34689;51.644;5.618;2022-07-23T13:28:39;1.48;;;1.02;;
48875;SDS011;34689;51.644;5.618;2022-07-23T13:31:05;2.33;;;1.35;;
48875;SDS011;34689;51.644;5.618;2022-07-23T13:33:30;2.13;;;1.58;;
48875;SDS011;34689;51.644;5.618;2022-07-23T13:35:56;1.45;;;0.98;;
48875;SDS011;34689;51.644;5.618;2022-07-23T13:38:22;2.63;;;1.45;;
48875;SDS011;34689;51.644;5.618;2022-07-23T13:40:49;4.15;;;1.73;;
48875;SDS011;34689;51.644;5.618;2022-07-23T13:43:17;2.72;;;1.38;;
48875;SDS011;34689;51.644;5.618;2022-07-23T13:45:44;3.58;;;0.85;;
48875;SDS011;34689;51.644;5.618;2022-07-23T13:48:11;1.55;;;1.33;;
48875;SDS011;34689;51.644;5.618;2022-07-23T13:50:38;2.03;;;1.40;;
48875;SDS011;34689;51.644;5.618;2022-07-23T13:53:05;1.23;;;0.98;;
48875;SDS011;34689;51.644;5.618;2022-07-23T13:55:36;1.73;;;1.20;;
48875;SDS011;34689;51.644;5.618;2022-07-23T13:58:02;2.05;;;1.20;;
48875;SDS011;34689;51.644;5.618;2022-07-23T14:00:29;2.63;;;1.10;;
48875;SDS011;34689;51.644;5.618;2022-07-23T14:02:56;4.13;;;1.40;;
48875;SDS011;34689;51.644;5.618;2022-07-23T14:05:22;2.75;;;1.40;;
48875;SDS011;34689;51.644;5.618;2022-07-23T14:07:48;1.50;;;1.00;;
48875;SDS011;34689;51.644;5.618;2022-07-23T14:10:15;2.88;;;1.65;;
48875;SDS011;34689;51.644;5.618;2022-07-23T14:12:42;2.90;;;1.58;;
48875;SDS011;34689;51.644;5.618;2022-07-23T14:15:09;4.10;;;1.58;;
48875;SDS011;34689;51.644;5.618;2022-07-23T14:17:36;2.00;;;1.65;;
48875;SDS011;34689;51.644;5.618;2022-07-23T14:20:03;1.90;;;1.45;;
48875;SDS011;34689;51.644;5.618;2022-07-23T14:22:30;3.65;;;1.67;;
48875;SDS011;34689;51.644;5.618;2022-07-23T14:24:55;3.90;;;2.15;;
48875;SDS011;34689;51.644;5.618;2022-07-23T14:27:23;4.85;;;1.65;;
48875;SDS011;34689;51.644;5.618;2022-07-23T14:29:50;1.67;;;1.30;;
48875;SDS011;34689;51.644;5.618;2022-07-23T14:32:16;2.03;;;1.40;;
48875;SDS011;34689;51.644;5.618;2022-07-23T14:34:42;2.88;;;1.17;;
48875;SDS011;34689;51.644;5.618;2022-07-23T14:37:09;2.45;;;1.52;;
48875;SDS011;34689;51.644;5.618;2022-07-23T14:39:36;1.25;;;0.93;;
48875;SDS011;34689;51.644;5.618;2022-07-23T14:42:03;2.20;;;1.25;;
48875;SDS011;34689;51.644;5.618;2022-07-23T14:44:29;1.67;;;1.00;;
48875;SDS011;34689;51.644;5.618;2022-07-23T14:46:55;2.20;;;1.00;;
48875;SDS011;34689;51.644;5.618;2022-07-23T14:49:20;1.50;;;1.20;;
48875;SDS011;34689;51.644;5.618;2022-07-23T14:51:46;1.20;;;1.00;;
48875;SDS011;34689;51.644;5.618;2022-07-23T14:54:12;1.48;;;0.85;;
48875;SDS011;34689;51.644;5.618;2022-07-23T14:56:39;2.55;;;1.30;;
48875;SDS011;34689;51.644;5.618;2022-07-23T14:59:05;1.83;;;0.82;;
48875;SDS011;34689;51.644;5.618;2022-07-23T15:01:31;1.17;;;1.08;;
48875;SDS011;34689;51.644;5.618;2022-07-23T15:04:00;1.52;;;1.00;;
48875;SDS011;34689;51.644;5.618;2022-07-23T15:06:26;1.58;;;1.08;;
48875;SDS011;34689;51.644;5.618;2022-07-23T15:08:51;5.18;;;0.88;;
48875;SDS011;34689;51.644;5.618;2022-07-23T15:11:17;2.40;;;0.80;;
48875;SDS011;34689;51.644;5.618;2022-07-23T15:13:43;2.38;;;0.80;;
48875;SDS011;34689;51.644;5.618;2022-07-23T15:16:09;1.73;;;1.25;;
48875;SDS011;34689;51.644;5.618;2022-07-23T15:18:35;2.65;;;1.00;;
48875;SDS011;34689;51.644;5.618;2022-07-23T15:21:02;0.75;;;0.70;;
48875;SDS011;34689;51.644;5.618;2022-07-23T15:23:27;2.33;;;1.20;;
48875;SDS011;34689;51.644;5.618;2022-07-23T15:25:56;1.00;;;0.85;;
48875;SDS011;34689;51.644;5.618;2022-07-23T15:28:22;1.30;;;0.85;;
48875;SDS011;34689;51.644;5.618;2022-07-23T15:30:49;1.13;;;0.93;;
48875;SDS011;34689;51.644;5.618;2022-07-23T15:33:16;1.35;;;0.70;;
48875;SDS011;34689;51.644;5.618;2022-07-23T15:35:42;2.03;;;0.80;;
48875;SDS011;34689;51.644;5.618;2022-07-23T15:38:07;1.65;;;0.82;;